Time;durP1;ratioP1;P1;durP2;ratioP2;P2;SDS_P1;SDS_P2;PMS_P1;PMS_P2;Temp;Humidity;BMP_temperature;BMP_pressure;BME280_temperature;BME280_humidity;BME280_pressure;Samples;Min_cycle;Max_cycle;Signal;HPM_P1;HPM_P2
2023/09/06 00:10:40;;;;;;;;;;;;;;;18.32;98.08;101150.26;670359;1274;126213;-77
2023/09/06 00:25:43;;;;;;;;;;;;;;;18.02;98.64;101144.08;668477;1264;125627;-77
2023/09/06 00:40:50;;;;;;;;;;;;;;;17.83;99.58;101138.86;668256;1275;125948;-78
2023/09/06 00:55:53;;;;;;;;;;;;;;;17.71;99.51;101137.44;668225;1262;125887;-77
2023/09/06 01:11:18;;;;;;;;;;;;;;;17.65;98.58;101140.64;668118;1263;126544;-77
2023/09/06 01:26:22;;;;;;;;;;;;;;;17.51;98.16;101144.64;668591;1263;127282;-77
2023/09/06 01:41:25;;;;;;;;;;;;;;;17.42;97.85;101139.20;668610;1262;125871;-78
2023/09/06 01:56:29;;;;;;;;;;;;;;;17.12;99.27;101135.05;668548;1263;125680;-77
2023/09/06 02:11:34;;;;;;;;;;;;;;;16.88;99.74;101127.04;671987;1260;126694;-78
2023/09/06 02:26:37;;;;;;;;;;;;;;;16.63;100.00;101138.84;668523;1262;125864;-78
2023/09/06 02:41:40;;;;;;;;;;;;;;;16.74;99.86;101140.67;668345;1273;125266;-79
2023/09/06 02:56:45;;;;;;;;;;;;;;;16.64;99.96;101146.67;671315;1262;125542;-78
2023/09/06 03:11:51;;;;;;;;;;;;;;;16.49;100.00;101140.92;672555;1264;125470;-77
2023/09/06 03:26:54;;;;;;;;;;;;;;;16.38;100.00;101147.81;670413;1262;127564;-78
2023/09/06 03:42:00;;;;;;;;;;;;;;;16.27;100.00;101153.15;673159;1262;126659;-77
2023/09/06 03:57:04;;;;;;;;;;;;;;;16.22;100.00;101142.73;672865;1259;126265;-76
2023/09/06 04:12:07;;;;;;;;;;;;;;;16.25;100.00;101148.27;669455;1273;125803;-77
2023/09/06 04:27:12;;;;;;;;;;;;;;;16.22;100.00;101146.88;671200;1262;125709;-78
2023/09/06 04:42:15;;;;;;;;;;;;;;;16.28;100.00;101149.58;671860;1262;126496;-77
2023/09/06 04:57:20;;;;;;;;;;;;;;;16.44;100.00;101154.86;668877;1259;127366;-77
2023/09/06 05:12:24;;;;;;;;;;;;;;;16.70;100.00;101158.23;668839;1262;127670;-77
2023/09/06 05:27:27;;;;;;;;;;;;;;;17.01;100.00;101166.34;668794;1261;126536;-77
2023/09/06 05:42:31;;;;;;;;;;;;;;;17.47;100.00;101176.44;668854;1262;125758;-77
2023/09/06 05:57:34;;;;;;;;;;;;;;;20.40;96.99;101190.14;669313;1273;126013;-81
2023/09/06 06:12:39;;;;;;;;;;;;;;;25.21;82.46;101210.27;672963;1261;125543;-79
2023/09/06 06:27:42;;;;;;;;;;;;;;;28.52;73.84;101230.25;673187;1262;126077;-79
2023/09/06 06:42:45;;;;;;;;;;;;;;;29.87;66.64;101236.12;673448;1262;124884;-78
2023/09/06 06:57:49;;;;;;;;;;;;;;;30.50;61.85;101231.80;672796;1259;126520;-78
2023/09/06 07:12:52;;;;;;;;;;;;;;;30.91;60.23;101236.82;673543;1261;125839;-78
2023/09/06 07:27:57;;;;;;;;;;;;;;;31.50;57.74;101248.63;672321;1263;126186;-78
2023/09/06 07:43:01;;;;;;;;;;;;;;;31.31;56.43;101253.10;668996;1259;125955;-78
2023/09/06 07:58:04;;;;;;;;;;;;;;;31.37;56.19;101255.94;668555;1264;125234;-77
2023/09/06 08:13:07;;;;;;;;;;;;;;;31.67;55.94;101261.26;671174;1259;124918;-79
2023/09/06 08:28:14;;;;;;;;;;;;;;;32.76;54.98;101261.19;678604;1262;126084;-78
2023/09/06 08:43:18;;;;;;;;;;;;;;;32.97;52.85;101264.20;668487;1262;125376;-77
2023/09/06 08:58:22;;;;;;;;;;;;;;;32.36;52.38;101263.51;668541;1263;124601;-77
2023/09/06 09:13:25;;;;;;;;;;;;;;;32.14;52.15;101264.20;668773;1263;125635;-76
2023/09/06 09:28:33;;;;;;;;;;;;;;;32.71;52.90;101262.64;668923;1263;126335;-77
2023/09/06 09:43:36;;;;;;;;;;;;;;;33.99;51.59;101264.88;668565;1258;124824;-77
2023/09/06 09:58:40;;;;;;;;;;;;;;;33.86;51.08;101266.64;670407;1263;127022;-77
2023/09/06 10:13:43;;;;;;;;;;;;;;;33.02;52.68;101266.83;668469;1260;124511;-78
2023/09/06 10:28:55;;;;;;;;;;;;;;;33.05;52.57;101258.88;668550;1266;126149;-77
2023/09/06 10:43:58;;;;;;;;;;;;;;;33.10;53.19;101251.95;668696;1262;124835;-76
2023/09/06 10:59:03;;;;;;;;;;;;;;;33.58;53.11;101251.25;668439;1262;125079;-76
2023/09/06 11:14:07;;;;;;;;;;;;;;;33.27;52.75;101246.32;669242;1261;126357;-78
2023/09/06 11:29:14;;;;;;;;;;;;;;;32.82;53.04;101237.48;669255;1262;124968;-76
2023/09/06 11:44:19;;;;;;;;;;;;;;;33.07;54.04;101238.71;668834;1262;126414;-77
2023/09/06 11:59:24;;;;;;;;;;;;;;;32.59;53.84;101234.13;671856;1262;124989;-76
2023/09/06 12:14:28;;;;;;;;;;;;;;;33.21;53.87;101221.25;669588;1261;125051;-80
2023/09/06 12:29:34;;;;;;;;;;;;;;;33.51;54.87;101218.43;669423;1271;125791;-75
2023/09/06 12:44:38;;;;;;;;;;;;;;;33.89;54.00;101212.41;669127;1262;125314;-76
2023/09/06 12:59:41;;;;;;;;;;;;;;;33.69;53.59;101209.78;668823;1263;125382;-76
2023/09/06 13:14:45;;;;;;;;;;;;;;;32.59;54.07;101198.79;668915;1262;124761;-75
2023/09/06 13:29:54;;;;;;;;;;;;;;;32.90;55.09;101187.39;668603;1263;125032;-75
2023/09/06 13:44:58;;;;;;;;;;;;;;;32.18;55.97;101182.25;673236;1263;124822;-75
2023/09/06 14:00:05;;;;;;;;;;;;;;;32.20;56.03;101184.70;669336;1269;126438;-75
2023/09/06 14:15:09;;;;;;;;;;;;;;;31.77;56.61;101175.36;668263;1263;125632;-76
2023/09/06 14:30:12;;;;;;;;;;;;;;;30.94;57.68;101164.59;668691;1264;126380;-76
2023/09/06 14:45:17;;;;;;;;;;;;;;;30.94;59.07;101160.10;669165;1261;126021;-76
2023/09/06 15:00:22;;;;;;;;;;;;;;;31.88;57.75;101169.55;669194;1261;125238;-75
2023/09/06 15:15:28;;;;;;;;;;;;;;;32.04;56.61;101166.27;669112;1263;125806;-76
2023/09/06 15:30:32;;;;;;;;;;;;;;;31.42;57.67;101166.23;669014;1262;126786;-75
2023/09/06 15:45:36;;;;;;;;;;;;;;;30.68;59.78;101162.56;668708;1272;125778;-75
2023/09/06 16:00:41;;;;;;;;;;;;;;;30.76;60.82;101164.68;669100;1264;124711;-76
2023/09/06 16:15:46;;;;;;;;;;;;;;;30.24;62.70;101171.98;668304;1264;125189;-77
2023/09/06 16:30:49;;;;;;;;;;;;;;;29.11;66.11;101174.20;668887;1264;124673;-78
2023/09/06 16:45:53;;;;;;;;;;;;;;;28.30;68.41;101177.75;668561;1262;124902;-77
2023/09/06 17:00:57;;;;;;;;;;;;;;;27.65;70.68;101186.95;668799;1263;125047;-76
2023/09/06 17:16:00;;;;;;;;;;;;;;;26.98;72.77;101187.56;669089;1263;125292;-76
2023/09/06 17:31:04;;;;;;;;;;;;;;;26.27;73.44;101197.50;668678;1273;468404;-76
2023/09/06 17:46:08;;;;;;;;;;;;;;;25.54;73.09;101216.02;669303;1263;126140;-76
2023/09/06 18:01:13;;;;;;;;;;;;;;;24.88;72.80;101229.30;672182;1269;126795;-76
2023/09/06 18:16:18;;;;;;;;;;;;;;;24.28;73.02;101247.84;670805;1257;125889;-76
2023/09/06 18:31:24;;;;;;;;;;;;;;;23.75;74.35;101263.17;668891;1276;125867;-76
2023/09/06 18:46:29;;;;;;;;;;;;;;;23.25;75.96;101279.49;668833;1263;127291;-76
2023/09/06 19:01:34;;;;;;;;;;;;;;;22.87;77.54;101282.63;668807;1260;127106;-77
2023/09/06 19:16:39;;;;;;;;;;;;;;;22.49;78.68;101288.97;676102;1262;126276;-76
2023/09/06 19:31:44;;;;;;;;;;;;;;;22.15;79.43;101289.17;669435;1264;125712;-77
2023/09/06 19:46:48;;;;;;;;;;;;;;;21.86;80.04;101294.59;668974;1258;127005;-77
2023/09/06 20:01:53;;;;;;;;;;;;;;;21.75;80.94;101306.39;668841;1259;126823;-76
2023/09/06 20:16:57;;;;;;;;;;;;;;;21.38;82.48;101323.11;668670;1263;126134;-77
2023/09/06 20:32:01;;;;;;;;;;;;;;;21.20;83.71;101326.70;668625;1275;127202;-77
2023/09/06 20:47:05;;;;;;;;;;;;;;;20.98;84.97;101331.61;669183;1259;126104;-76
2023/09/06 21:02:12;;;;;;;;;;;;;;;20.74;86.12;101345.14;668997;1263;126649;-79
2023/09/06 21:17:15;;;;;;;;;;;;;;;20.57;86.82;101363.85;671266;1263;126042;-78
2023/09/06 21:32:18;;;;;;;;;;;;;;;20.47;86.75;101370.46;675693;1271;126806;-77
2023/09/06 21:47:22;;;;;;;;;;;;;;;20.47;86.35;101377.76;671530;1257;125952;-77
2023/09/06 22:02:25;;;;;;;;;;;;;;;20.28;86.93;101381.17;677257;1262;125925;-77
2023/09/06 22:17:47;;;;;;;;;;;;;;;20.00;87.32;101379.06;677091;1262;126470;-77
2023/09/06 22:32:50;;;;;;;;;;;;;;;19.75;88.22;101388.38;671706;1259;126879;-77
2023/09/06 22:47:54;;;;;;;;;;;;;;;19.36;88.63;101387.45;678954;1262;126943;-76
2023/09/06 23:02:57;;;;;;;;;;;;;;;19.27;89.32;101392.33;675564;1262;127398;-76
2023/09/06 23:18:00;;;;;;;;;;;;;;;19.07;89.47;101387.33;675409;1264;126608;-77
2023/09/06 23:33:11;;;;;;;;;;;;;;;18.90;90.26;101393.55;674629;1264;126009;-76
2023/09/06 23:48:15;;;;;;;;;;;;;;;18.61;91.23;101402.21;672562;1262;126138;-76
